Terminal Aerodrome Forecast
Issued by NWS

Home | Current Version | Previous Version | Text Only | Print | Product List | Glossary On
Versions: 1 2 3 4 5 6 7 8 9 10 11 12 13 14 15
094
FTUS45 KFGZ 272337
TAFPGA
TAF
KPGA 272337Z 2800/2824 28010G20KT P6SM VCSH SCT070 BKN120
      TEMPO 2800/2803 6SM SHRA OVC050
     FM280700 32011KT P6SM SCT070 BKN120 PROB30 2809/2813 6SM SHRA
      OVC050
     FM281800 34013G23KT P6SM SCT080=

USA.gov is the U.S. government's official web portal to all federal, state and local government web resources and services.